createdAt,value
2018-04-11T00:01:29.803Z,3.93
2018-04-11T00:03:57.332Z,4.00
2018-04-11T00:06:25.179Z,4.00
2018-04-11T00:08:54.297Z,3.93
2018-04-11T00:11:22.677Z,3.90
2018-04-11T00:13:50.382Z,3.90
2018-04-11T00:16:18.656Z,3.70
2018-04-11T00:18:46.185Z,4.70
2018-04-11T00:21:13.723Z,3.90
2018-04-11T00:23:41.971Z,4.20
2018-04-11T00:26:11.961Z,3.70
2018-04-11T00:28:39.531Z,3.30
2018-04-11T00:31:07.049Z,3.50
2018-04-11T00:33:34.622Z,4.33
2018-04-11T00:36:02.160Z,3.80
2018-04-11T00:38:29.735Z,3.57
2018-04-11T00:40:57.313Z,3.80
2018-04-11T00:43:25.468Z,3.40
2018-04-11T00:45:53.922Z,3.47
2018-04-11T00:48:22.257Z,4.43
2018-04-11T00:50:49.806Z,4.07
2018-04-11T00:53:28.156Z,3.70
2018-04-11T00:55:56.454Z,3.50
2018-04-11T00:58:24.002Z,4.87
2018-04-11T01:00:53.187Z,3.10
2018-04-11T01:03:21.329Z,4.00
2018-04-11T01:05:48.915Z,3.70
2018-04-11T01:08:16.564Z,3.40
2018-04-11T01:10:44.533Z,4.20
2018-04-11T01:13:12.079Z,3.70
2018-04-11T01:15:39.654Z,4.83
2018-04-11T01:18:07.187Z,5.03
2018-04-11T01:20:34.921Z,3.97
2018-04-11T01:23:03.186Z,4.20
2018-04-11T01:25:31.483Z,4.00
2018-04-11T01:27:59.032Z,3.87
2018-04-11T01:30:26.589Z,4.03
2018-04-11T01:32:55.475Z,4.10
2018-04-11T01:35:23.009Z,4.20
2018-04-11T01:37:52.595Z,4.50
2018-04-11T01:40:20.145Z,3.47
2018-04-11T01:42:47.679Z,4.30
2018-04-11T01:45:16.158Z,4.37
2018-04-11T01:47:43.669Z,3.47
2018-04-11T01:50:12.734Z,4.40
2018-04-11T01:52:42.033Z,3.70
2018-04-11T01:55:09.543Z,3.53
2018-04-11T01:57:37.117Z,3.90
2018-04-11T02:00:05.442Z,3.50
2018-04-11T02:02:33.737Z,3.53
2018-04-11T02:05:01.294Z,3.60
2018-04-11T02:07:30.788Z,3.33
2018-04-11T02:09:58.329Z,4.57
2018-04-11T02:12:26.590Z,3.80
2018-04-11T02:14:54.159Z,3.60
2018-04-11T02:17:22.305Z,4.30
2018-04-11T02:19:49.899Z,3.47
2018-04-11T02:22:18.053Z,4.53
2018-04-11T02:24:45.605Z,4.57
2018-04-11T02:27:14.236Z,4.13
2018-04-11T02:29:41.763Z,4.20
2018-04-11T02:32:09.278Z,4.07
2018-04-11T02:34:36.885Z,4.00
2018-04-11T02:37:04.909Z,3.80
2018-04-11T02:39:33.954Z,3.90
2018-04-11T02:42:01.526Z,4.00
2018-04-11T02:44:29.046Z,4.00
2018-04-11T02:46:57.672Z,3.70
2018-04-11T02:49:26.119Z,3.43
2018-04-11T02:51:55.847Z,3.83
2018-04-11T02:54:23.481Z,3.27
2018-04-11T02:56:51.862Z,3.73
2018-04-11T02:59:19.422Z,3.33
2018-04-11T03:01:47.779Z,3.63
2018-04-11T03:04:16.082Z,3.60
2018-04-11T03:06:44.429Z,3.40
2018-04-11T03:09:12.016Z,3.83
2018-04-11T03:11:40.804Z,3.60
2018-04-11T03:14:09.449Z,3.90
2018-04-11T03:16:37.188Z,4.13
2018-04-11T03:19:05.390Z,3.70
2018-04-11T03:21:34.230Z,3.63
2018-04-11T03:24:01.919Z,4.00
2018-04-11T03:26:29.454Z,3.90
2018-04-11T03:28:57.014Z,4.80
2018-04-11T03:31:25.361Z,4.40
2018-04-11T03:33:54.668Z,4.13
2018-04-11T03:36:23.950Z,3.10
2018-04-11T03:38:52.310Z,3.70
2018-04-11T03:41:20.054Z,4.10
2018-04-11T03:43:47.856Z,4.40
2018-04-11T03:46:15.764Z,4.10
2018-04-11T03:48:43.590Z,4.53
2018-04-11T03:51:12.983Z,4.37
2018-04-11T03:53:40.692Z,4.00
2018-04-11T03:56:08.267Z,4.43
2018-04-11T03:58:35.805Z,4.40
2018-04-11T04:01:04.315Z,4.60
2018-04-11T04:03:32.133Z,5.50
2018-04-11T04:06:00.499Z,5.50
2018-04-11T04:08:29.458Z,5.03
2018-04-11T04:10:57.877Z,4.80
2018-04-11T04:16:36.648Z,6.43
2018-04-11T04:19:16.232Z,5.93
2018-04-11T04:21:44.709Z,5.27
2018-04-11T04:24:12.401Z,5.73
2018-04-11T04:26:39.925Z,6.00
2018-04-11T04:29:07.550Z,6.07
2018-04-11T04:31:35.637Z,5.43
2018-04-11T04:34:04.565Z,5.57
2018-04-11T04:36:32.693Z,5.43
2018-04-11T04:39:01.245Z,5.50
2018-04-11T04:41:28.771Z,5.27
2018-04-11T04:43:56.298Z,5.60
2018-04-11T04:46:24.434Z,8.17
2018-04-11T04:48:52.461Z,8.10
2018-04-11T04:51:21.287Z,8.67
2018-04-11T04:53:48.888Z,7.70
2018-04-11T04:56:17.946Z,8.37
2018-04-11T04:58:45.703Z,7.20
2018-04-11T05:01:13.232Z,6.07
2018-04-11T05:03:40.823Z,6.17
2018-04-11T05:06:09.681Z,5.97
2018-04-11T05:08:37.220Z,4.93
2018-04-11T05:11:07.928Z,5.33
2018-04-11T05:13:35.554Z,5.43
2018-04-11T05:16:03.180Z,5.70
2018-04-11T05:18:31.510Z,6.10
2018-04-11T05:20:59.822Z,5.73
2018-04-11T05:23:28.318Z,5.53
2018-04-11T05:25:56.644Z,7.57
2018-04-11T05:28:24.193Z,5.73
2018-04-11T05:30:51.728Z,6.00
2018-04-11T05:33:19.916Z,6.57
2018-04-11T05:35:47.501Z,6.60
2018-04-11T05:38:15.075Z,7.27
2018-04-11T05:40:42.677Z,6.90
2018-04-11T05:43:10.217Z,6.57
2018-04-11T05:45:37.762Z,6.30
2018-04-11T05:48:07.791Z,6.23
2018-04-11T05:50:35.922Z,6.30
2018-04-11T05:53:03.973Z,12.13
2018-04-11T05:55:31.536Z,14.23
2018-04-11T05:57:59.114Z,27.93
2018-04-11T06:00:26.657Z,14.83
2018-04-11T06:02:54.206Z,9.23
2018-04-11T06:05:22.088Z,7.83
2018-04-11T06:07:49.615Z,7.50
2018-04-11T06:10:18.540Z,18.10
2018-04-11T06:12:46.110Z,16.57
2018-04-11T06:15:13.649Z,14.20
2018-04-11T06:17:41.831Z,22.20
2018-04-11T06:20:09.785Z,12.57
2018-04-11T06:22:38.129Z,13.63
2018-04-11T06:25:05.663Z,23.00
2018-04-11T06:27:33.222Z,18.87
2018-04-11T06:30:00.758Z,12.97
2018-04-11T06:32:28.303Z,18.23
2018-04-11T06:34:55.879Z,19.17
2018-04-11T06:37:24.833Z,21.40
2018-04-11T06:39:53.194Z,11.33
2018-04-11T06:42:20.767Z,8.00
2018-04-11T06:44:48.291Z,7.13
2018-04-11T06:47:15.987Z,7.00
2018-04-11T06:49:43.497Z,7.50
2018-04-11T06:52:11.518Z,6.97
2018-04-11T06:54:39.089Z,7.33
2018-04-11T06:57:08.228Z,8.13
2018-04-11T06:59:36.421Z,8.77
2018-04-11T07:02:03.978Z,7.70
2018-04-11T07:04:31.519Z,8.40
2018-04-11T07:06:59.094Z,8.27
2018-04-11T07:09:27.532Z,7.80
2018-04-11T07:11:55.074Z,7.97
2018-04-11T07:14:23.391Z,8.20
2018-04-11T07:16:50.939Z,8.77
2018-04-11T07:19:18.511Z,8.40
2018-04-11T07:21:46.051Z,8.67
2018-04-11T07:24:14.743Z,9.37
2018-04-11T07:26:43.213Z,9.13
2018-04-11T07:29:11.518Z,9.40
2018-04-11T07:31:39.043Z,9.40
2018-04-11T07:34:08.241Z,8.10
2018-04-11T07:36:36.955Z,8.80
2018-04-11T07:39:05.412Z,9.47
2018-04-11T07:48:18.233Z,9.10
2018-04-11T07:50:45.753Z,8.53
2018-04-11T07:53:13.307Z,9.57
2018-04-11T07:55:40.961Z,8.87
2018-04-11T07:58:10.176Z,8.17
2018-04-11T08:00:37.704Z,8.43
2018-04-11T08:03:06.191Z,8.60
2018-04-11T08:05:33.786Z,9.30
2018-04-11T08:08:01.319Z,9.00
2018-04-11T08:10:29.625Z,8.40
2018-04-11T08:12:59.076Z,9.00
2018-04-11T08:15:27.176Z,8.00
2018-04-11T08:17:54.713Z,7.20
2018-04-11T08:20:22.486Z,7.10
2018-04-11T08:22:50.803Z,8.10
2018-04-11T08:25:18.977Z,7.93
2018-04-11T08:27:46.784Z,7.60
2018-04-11T08:30:14.368Z,7.70
2018-04-11T08:32:41.919Z,7.63
2018-04-11T08:35:10.223Z,8.67
2018-04-11T08:37:37.779Z,8.30
2018-04-11T08:40:06.187Z,8.47
2018-04-11T08:42:34.555Z,9.27
2018-04-11T08:45:02.082Z,10.33
2018-04-11T08:47:30.934Z,9.23
2018-04-11T08:49:58.996Z,9.90
2018-04-11T08:52:26.561Z,10.00
2018-04-11T08:54:54.140Z,9.83
2018-04-11T08:57:22.757Z,8.57
2018-04-11T08:59:50.294Z,7.80
2018-04-11T09:02:18.761Z,7.87
2018-04-11T09:04:46.391Z,7.30
2018-04-11T09:07:13.932Z,7.20
2018-04-11T09:09:42.000Z,7.97
2018-04-11T09:12:09.879Z,7.63
2018-04-11T09:14:38.373Z,9.10
2018-04-11T09:17:05.918Z,24.50
2018-04-11T09:19:33.561Z,20.27
2018-04-11T09:22:01.873Z,13.20
2018-04-11T09:24:29.465Z,11.27
2018-04-11T09:26:57.056Z,20.67
2018-04-11T09:29:25.205Z,13.00
2018-04-11T09:31:52.831Z,17.40
2018-04-11T09:34:20.350Z,15.40
2018-04-11T09:36:48.826Z,10.50
2018-04-11T09:39:17.483Z,8.60
2018-04-11T09:41:45.609Z,7.63
2018-04-11T09:44:14.021Z,6.93
2018-04-11T09:46:41.633Z,6.60
2018-04-11T09:49:09.621Z,7.73
2018-04-11T09:51:37.364Z,8.27
2018-04-11T09:54:05.682Z,7.40
2018-04-11T09:56:33.205Z,6.90
2018-04-11T09:59:01.753Z,6.40
2018-04-11T10:01:34.774Z,11.10
2018-04-11T10:04:02.337Z,10.87
2018-04-11T10:06:30.633Z,8.50
2018-04-11T10:08:59.686Z,18.83
2018-04-11T10:11:27.225Z,13.40
2018-04-11T10:13:54.828Z,11.50
2018-04-11T10:16:23.469Z,7.10
2018-04-11T10:18:50.997Z,7.23
2018-04-11T10:21:18.947Z,5.10
2018-04-11T10:23:47.624Z,6.43
2018-04-11T10:26:15.955Z,5.33
2018-04-11T10:28:44.519Z,4.87
2018-04-11T10:31:12.768Z,4.00
2018-04-11T10:33:40.374Z,4.37
2018-04-11T10:36:08.992Z,3.50
2018-04-11T10:38:36.523Z,8.60
2018-04-11T10:41:04.899Z,7.43
2018-04-11T10:43:32.494Z,8.30
2018-04-11T10:46:00.018Z,3.77
2018-04-11T10:48:27.574Z,3.53
2018-04-11T10:50:55.973Z,3.23
2018-04-11T10:53:23.501Z,8.37
2018-04-11T10:55:51.077Z,7.50
2018-04-11T10:58:19.875Z,4.20
2018-04-11T11:00:47.432Z,2.97
2018-04-11T11:03:15.561Z,2.03
2018-04-11T11:05:43.811Z,2.60
2018-04-11T11:08:12.224Z,1.90
2018-04-11T11:10:40.362Z,1.90
2018-04-11T11:13:08.359Z,2.10
2018-04-11T11:15:36.646Z,2.47
2018-04-11T11:18:04.223Z,2.00
2018-04-11T11:20:33.471Z,3.50
2018-04-11T11:23:01.837Z,7.93
2018-04-11T11:25:30.104Z,3.60
2018-04-11T11:27:58.258Z,3.07
2018-04-11T11:30:25.794Z,2.30
2018-04-11T11:32:53.394Z,2.10
2018-04-11T11:35:21.988Z,1.80
2018-04-11T11:37:49.565Z,1.80
2018-04-11T11:40:17.114Z,2.70
2018-04-11T11:42:44.686Z,2.03
2018-04-11T11:45:12.221Z,4.60
2018-04-11T11:47:40.105Z,4.00
2018-04-11T11:50:07.666Z,2.90
2018-04-11T11:52:37.502Z,1.77
2018-04-11T11:55:06.022Z,1.97
2018-04-11T11:57:33.589Z,2.47
2018-04-11T12:00:01.117Z,4.20
2018-04-11T12:02:28.699Z,4.50
2018-04-11T12:04:56.477Z,3.17
2018-04-11T12:07:25.679Z,2.50
2018-04-11T12:09:54.042Z,1.60
2018-04-11T12:12:21.587Z,1.70
2018-04-11T12:14:49.163Z,2.23
2018-04-11T12:17:17.135Z,3.90
2018-04-11T12:19:45.517Z,2.33
2018-04-11T12:22:14.933Z,2.63
2018-04-11T12:24:43.220Z,1.87
2018-04-11T12:27:10.739Z,1.40
2018-04-11T12:29:38.314Z,1.30
2018-04-11T12:32:06.744Z,1.40
2018-04-11T12:34:34.322Z,1.40
2018-04-11T12:37:04.203Z,1.10
2018-04-11T12:39:32.938Z,1.03
2018-04-11T12:42:01.286Z,0.90
2018-04-11T12:44:28.851Z,1.13
2018-04-11T12:46:57.138Z,1.13
2018-04-11T12:49:26.496Z,1.33
2018-04-11T12:51:55.306Z,1.03
2018-04-11T12:54:22.931Z,1.73
2018-04-11T12:56:52.125Z,1.03
2018-04-11T12:59:20.562Z,1.27
2018-04-11T13:01:49.566Z,1.50
2018-04-11T13:04:17.873Z,1.10
2018-04-11T13:06:46.176Z,1.13
2018-04-11T13:09:13.782Z,1.23
2018-04-11T13:11:42.052Z,1.50
2018-04-11T13:14:11.264Z,1.13
2018-04-11T13:16:39.109Z,1.73
2018-04-11T13:19:08.159Z,2.00
2018-04-11T13:21:35.998Z,2.00
2018-04-11T13:24:03.545Z,2.60
2018-04-11T13:26:31.592Z,2.27
2018-04-11T13:29:00.445Z,2.70
2018-04-11T13:31:28.009Z,2.20
2018-04-11T13:33:55.869Z,2.10
2018-04-11T13:36:24.311Z,2.60
2018-04-11T13:38:53.880Z,2.20
2018-04-11T13:41:22.039Z,2.10
2018-04-11T13:43:50.247Z,1.63
2018-04-11T13:46:18.559Z,2.20
2018-04-11T13:48:48.704Z,2.07
2018-04-11T13:51:16.368Z,1.70
2018-04-11T13:53:44.442Z,2.10
2018-04-11T13:56:12.951Z,1.70
2018-04-11T13:58:40.508Z,1.70
2018-04-11T14:01:08.038Z,2.33
2018-04-11T14:03:36.442Z,1.90
2018-04-11T14:06:04.921Z,1.73
2018-04-11T14:08:35.117Z,1.90
2018-04-11T14:11:03.838Z,1.97
2018-04-11T14:13:48.059Z,1.47
2018-04-11T14:16:16.869Z,2.00
2018-04-11T14:18:46.413Z,2.10
2018-04-11T14:21:15.502Z,1.80
2018-04-11T14:23:43.883Z,2.20
2018-04-11T14:26:11.502Z,2.50
2018-04-11T14:28:41.286Z,1.87
2018-04-11T14:31:09.612Z,1.73
2018-04-11T14:33:37.144Z,1.80
2018-04-11T14:36:04.756Z,1.77
2018-04-11T14:38:32.283Z,2.20
2018-04-11T14:41:00.821Z,1.90
2018-04-11T14:43:29.169Z,2.33
2018-04-11T14:45:58.389Z,1.90
2018-04-11T14:48:25.936Z,2.17
2018-04-11T14:50:53.670Z,2.83
2018-04-11T14:53:21.214Z,1.67
2018-04-11T14:55:48.771Z,2.47
2018-04-11T14:58:16.298Z,2.37
2018-04-11T15:00:44.654Z,2.00
2018-04-11T15:03:12.954Z,2.10
2018-04-11T15:05:40.680Z,1.63
2018-04-11T15:08:08.252Z,2.57
2018-04-11T15:10:35.813Z,2.47
2018-04-11T15:13:04.110Z,2.20
2018-04-11T15:15:33.005Z,2.97
2018-04-11T15:18:00.574Z,2.77
2018-04-11T15:20:28.707Z,2.10
2018-04-11T15:22:57.313Z,2.50
2018-04-11T15:25:25.622Z,3.00
2018-04-11T15:27:53.171Z,2.53
2018-04-11T15:30:21.184Z,2.43
2018-04-11T15:32:49.672Z,2.17
2018-04-11T15:35:17.681Z,2.07
2018-04-11T15:37:45.254Z,1.97
2018-04-11T15:40:13.654Z,2.77
2018-04-11T15:42:41.866Z,2.50
2018-04-11T15:45:10.300Z,2.23
2018-04-11T15:47:38.805Z,2.27
2018-04-11T15:50:06.519Z,2.60
2018-04-11T15:52:34.811Z,2.53
2018-04-11T15:55:03.413Z,3.00
2018-04-11T15:57:30.956Z,2.97
2018-04-11T15:59:59.486Z,3.23
2018-04-11T16:02:27.552Z,3.30
2018-04-11T16:04:56.041Z,2.57
2018-04-11T16:07:24.501Z,2.00
2018-04-11T16:09:52.892Z,2.97
2018-04-11T16:12:20.733Z,3.00
2018-04-11T16:14:49.228Z,2.30
2018-04-11T16:17:20.068Z,2.30
2018-04-11T16:19:47.599Z,2.30
2018-04-11T16:22:16.492Z,2.60
2018-04-11T16:24:45.407Z,2.90
2018-04-11T16:27:12.951Z,5.30
2018-04-11T16:29:40.896Z,5.63
2018-04-11T16:32:09.711Z,6.10
2018-04-11T16:34:37.286Z,3.13
2018-04-11T16:37:05.479Z,7.07
2018-04-11T16:39:33.899Z,4.57
2018-04-11T16:42:01.474Z,6.20
2018-04-11T16:44:29.297Z,3.10
2018-04-11T16:46:56.879Z,2.80
2018-04-11T16:49:25.203Z,7.97
2018-04-11T16:51:52.751Z,14.20
2018-04-11T16:54:21.096Z,5.10
2018-04-11T16:56:49.385Z,3.50
2018-04-11T16:59:16.986Z,4.80
2018-04-11T17:01:45.115Z,9.10
2018-04-11T17:04:12.668Z,5.20
2018-04-11T17:06:40.358Z,4.53
2018-04-11T17:09:08.590Z,2.60
2018-04-11T17:11:36.204Z,4.23
2018-04-11T17:14:03.780Z,2.20
2018-04-11T17:16:31.367Z,4.00
2018-04-11T17:18:58.900Z,2.57
2018-04-11T17:21:38.257Z,2.80
2018-04-11T17:24:17.633Z,3.00
2018-04-11T17:26:56.958Z,2.37
2018-04-11T17:29:36.444Z,3.83
2018-04-11T17:32:04.029Z,7.83
2018-04-11T17:34:31.639Z,4.20
2018-04-11T17:36:59.211Z,3.30
2018-04-11T17:39:26.779Z,3.90
2018-04-11T17:41:54.320Z,3.13
2018-04-11T17:44:21.932Z,2.53
2018-04-11T17:46:50.067Z,3.30
2018-04-11T17:49:18.504Z,3.07
2018-04-11T17:51:47.442Z,2.77
2018-04-11T17:54:15.064Z,2.77
2018-04-11T17:56:43.389Z,2.90
2018-04-11T17:59:10.906Z,2.30
2018-04-11T18:01:38.464Z,2.73
2018-04-11T18:04:08.194Z,2.27
2018-04-11T18:06:35.825Z,2.77
2018-04-11T18:09:04.358Z,2.73
2018-04-11T18:11:31.903Z,3.07
2018-04-11T18:13:59.413Z,3.37
2018-04-11T18:16:26.988Z,3.03
2018-04-11T18:18:54.562Z,2.80
2018-04-11T18:21:23.786Z,3.80
2018-04-11T18:23:53.495Z,3.10
2018-04-11T18:26:22.260Z,3.60
2018-04-11T18:28:50.433Z,2.80
2018-04-11T18:31:19.324Z,3.27
2018-04-11T18:33:48.492Z,2.47
2018-04-11T18:36:17.926Z,3.00
2018-04-11T18:38:46.214Z,3.10
2018-04-11T18:41:13.757Z,19.20
2018-04-11T18:43:42.769Z,18.77
2018-04-11T18:46:10.299Z,16.70
2018-04-11T18:48:38.661Z,6.40
2018-04-11T18:51:06.191Z,11.70
2018-04-11T18:53:34.182Z,8.70
2018-04-11T18:56:01.950Z,13.70
2018-04-11T18:58:29.522Z,7.47
2018-04-11T19:00:57.050Z,4.73
2018-04-11T19:03:25.388Z,7.13
2018-04-11T19:05:53.721Z,9.43
2018-04-11T19:08:21.256Z,8.17
2018-04-11T19:10:49.999Z,6.47
2018-04-11T19:23:06.601Z,3.10
2018-04-11T19:25:34.839Z,3.80
2018-04-11T19:28:02.417Z,3.10
2018-04-11T19:30:30.981Z,6.70
2018-04-11T19:32:58.533Z,13.30
2018-04-11T19:35:26.566Z,14.83
2018-04-11T19:37:54.481Z,7.80
2018-04-11T19:40:22.098Z,4.93
2018-04-11T19:42:49.624Z,3.73
2018-04-11T19:45:17.967Z,3.40
2018-04-11T19:47:45.602Z,4.00
2018-04-11T19:50:13.204Z,3.40
2018-04-11T19:52:41.544Z,3.40
2018-04-11T19:55:09.909Z,3.60
2018-04-11T19:57:37.799Z,3.37
2018-04-11T20:00:06.065Z,3.40
2018-04-11T20:02:34.565Z,3.60
2018-04-11T20:05:02.109Z,3.50
2018-04-11T20:07:29.755Z,3.40
2018-04-11T20:09:58.164Z,3.93
2018-04-11T20:12:25.709Z,3.30
2018-04-11T20:14:53.286Z,3.57
2018-04-11T20:17:21.034Z,3.50
2018-04-11T20:19:49.143Z,4.17
2018-04-11T20:22:16.671Z,3.70
2018-04-11T20:24:44.388Z,3.20
2018-04-11T20:27:12.869Z,4.10
2018-04-11T20:29:41.170Z,3.30
2018-04-11T20:32:08.722Z,6.90
2018-04-11T20:34:39.198Z,12.03
2018-04-11T20:37:06.757Z,6.77
2018-04-11T20:39:36.460Z,5.17
2018-04-11T20:42:05.923Z,4.13
2018-04-11T20:44:34.153Z,4.00
2018-04-11T20:47:01.980Z,5.60
2018-04-11T20:49:29.960Z,11.20
2018-04-11T20:51:59.998Z,11.90
2018-04-11T20:57:08.797Z,4.23
2018-04-11T20:59:36.941Z,4.37
2018-04-11T21:02:06.283Z,4.30
2018-04-11T21:04:33.866Z,3.93
2018-04-11T21:07:02.697Z,3.73
2018-04-11T21:09:40.411Z,3.53
2018-04-11T21:12:12.811Z,3.03
2018-04-11T21:14:40.371Z,3.00
2018-04-11T21:17:07.925Z,4.20
2018-04-11T21:19:35.729Z,3.00
2018-04-11T21:22:04.462Z,3.00
2018-04-11T21:37:27.148Z,3.30
2018-04-11T21:39:54.677Z,3.77
2018-04-11T21:42:23.920Z,4.70
2018-04-11T21:44:51.746Z,4.07
2018-04-11T21:47:20.049Z,3.73
2018-04-11T21:49:48.668Z,2.80
2018-04-11T21:52:16.964Z,3.20
2018-04-11T21:54:44.522Z,2.60
2018-04-11T21:57:12.741Z,2.70
2018-04-11T21:59:41.177Z,4.90
2018-04-11T22:02:08.763Z,4.40
2018-04-11T22:04:36.790Z,14.50
2018-04-11T22:07:04.325Z,8.47
2018-04-11T22:09:31.880Z,10.70
2018-04-11T22:12:00.605Z,23.93
2018-04-11T22:14:28.133Z,14.27
2018-04-11T22:16:55.705Z,8.87
2018-04-11T22:19:23.216Z,4.40
2018-04-11T22:21:54.936Z,3.57
2018-04-11T22:24:23.243Z,3.77
2018-04-11T22:26:51.710Z,3.00
2018-04-11T22:29:19.287Z,3.10
2018-04-11T22:31:46.815Z,2.70
2018-04-11T22:34:15.906Z,2.97
2018-04-11T22:36:43.482Z,3.00
2018-04-11T22:39:10.990Z,3.67
2018-04-11T22:41:38.525Z,3.17
2018-04-11T22:44:06.137Z,2.93
2018-04-11T22:46:34.898Z,2.67
2018-04-11T22:49:03.536Z,2.97
2018-04-11T22:51:31.768Z,3.03
2018-04-11T22:53:59.802Z,3.27
2018-04-11T22:56:27.333Z,3.30
2018-04-11T22:58:56.766Z,2.97
2018-04-11T23:01:24.300Z,3.23
2018-04-11T23:03:52.625Z,3.10
2018-04-11T23:06:20.372Z,3.50
2018-04-11T23:08:47.905Z,2.97
2018-04-11T23:11:15.469Z,3.10
2018-04-11T23:13:43.048Z,2.63
2018-04-11T23:16:10.600Z,2.93
2018-04-11T23:18:38.327Z,2.80
2018-04-11T23:21:05.849Z,3.33
2018-04-11T23:23:33.399Z,3.10
2018-04-11T23:26:00.969Z,2.50
2018-04-11T23:28:28.718Z,3.27
2018-04-11T23:30:56.341Z,2.80
2018-04-11T23:33:23.865Z,3.80
2018-04-11T23:35:52.329Z,3.20
2018-04-11T23:38:20.658Z,3.23
2018-04-11T23:40:48.531Z,3.07
2018-04-11T23:43:17.186Z,3.33
2018-04-11T23:45:44.779Z,3.67
2018-04-11T23:48:13.103Z,3.07
2018-04-11T23:50:41.504Z,3.07
2018-04-11T23:53:09.074Z,3.43
2018-04-11T23:55:36.625Z,3.40
2018-04-11T23:58:04.649Z,3.07
